sensor_id;sensor_type;location;lat;lon;timestamp;pressure;altitude;pressure_sealevel;temperature;humidity
12963;BME280;6546;49.882;8.666;2022-07-23T00:00:57;99727.44;;;23.01;68.64
12963;BME280;6546;49.882;8.666;2022-07-23T00:03:24;99737.16;;;23.01;68.81
12963;BME280;6546;49.882;8.666;2022-07-23T00:05:51;99756.06;;;22.91;69.21
12963;BME280;6546;49.882;8.666;2022-07-23T00:08:18;99743.16;;;22.85;69.42
12963;BME280;6546;49.882;8.666;2022-07-23T00:10:44;99741.28;;;22.87;69.24
12963;BME280;6546;49.882;8.666;2022-07-23T00:13:13;99754.88;;;22.80;68.89
12963;BME280;6546;49.882;8.666;2022-07-23T00:15:39;99766.28;;;22.80;69.84
12963;BME280;6546;49.882;8.666;2022-07-23T00:18:06;99757.13;;;22.87;69.61
12963;BME280;6546;49.882;8.666;2022-07-23T00:20:32;99765.81;;;22.89;69.50
12963;BME280;6546;49.882;8.666;2022-07-23T00:22:59;99765.38;;;22.99;69.55
12963;BME280;6546;49.882;8.666;2022-07-23T00:25:26;99776.88;;;22.98;69.37
12963;BME280;6546;49.882;8.666;2022-07-23T00:27:53;99780.13;;;23.03;70.36
12963;BME280;6546;49.882;8.666;2022-07-23T00:30:21;99769.34;;;23.07;69.63
12963;BME280;6546;49.882;8.666;2022-07-23T00:32:49;99766.78;;;23.06;69.55
12963;BME280;6546;49.882;8.666;2022-07-23T00:35:18;99757.44;;;23.16;68.49
12963;BME280;6546;49.882;8.666;2022-07-23T00:37:45;99741.47;;;23.19;67.75
12963;BME280;6546;49.882;8.666;2022-07-23T00:40:12;99730.31;;;23.14;67.75
12963;BME280;6546;49.882;8.666;2022-07-23T00:42:39;99719.75;;;22.97;70.11
12963;BME280;6546;49.882;8.666;2022-07-23T00:45:07;99708.50;;;22.93;70.72
12963;BME280;6546;49.882;8.666;2022-07-23T00:47:35;99707.00;;;22.87;73.12
12963;BME280;6546;49.882;8.666;2022-07-23T00:50:03;99705.63;;;22.63;73.87
12963;BME280;6546;49.882;8.666;2022-07-23T00:52:31;99728.22;;;22.50;73.63
12963;BME280;6546;49.882;8.666;2022-07-23T00:54:59;99747.63;;;22.49;74.16
12963;BME280;6546;49.882;8.666;2022-07-23T00:57:26;99741.41;;;22.50;74.90
12963;BME280;6546;49.882;8.666;2022-07-23T00:59:52;99741.72;;;22.44;76.44
12963;BME280;6546;49.882;8.666;2022-07-23T01:02:19;99749.22;;;22.34;74.25
12963;BME280;6546;49.882;8.666;2022-07-23T01:04:47;99755.41;;;22.33;74.23
12963;BME280;6546;49.882;8.666;2022-07-23T01:07:14;99766.56;;;22.21;74.69
12963;BME280;6546;49.882;8.666;2022-07-23T01:09:42;99777.78;;;22.24;74.59
12963;BME280;6546;49.882;8.666;2022-07-23T01:12:09;99772.28;;;22.29;74.38
12963;BME280;6546;49.882;8.666;2022-07-23T01:14:36;99781.22;;;22.26;74.76
12963;BME280;6546;49.882;8.666;2022-07-23T01:17:04;99793.59;;;22.24;74.34
12963;BME280;6546;49.882;8.666;2022-07-23T01:19:30;99795.91;;;22.13;74.30
12963;BME280;6546;49.882;8.666;2022-07-23T01:22:01;99792.34;;;22.14;74.11
12963;BME280;6546;49.882;8.666;2022-07-23T01:24:30;99800.88;;;22.19;74.53
12963;BME280;6546;49.882;8.666;2022-07-23T01:26:56;99804.44;;;22.18;74.32
12963;BME280;6546;49.882;8.666;2022-07-23T01:29:23;99799.03;;;22.21;73.79
12963;BME280;6546;49.882;8.666;2022-07-23T01:31:50;99778.59;;;22.26;73.81
12963;BME280;6546;49.882;8.666;2022-07-23T01:34:16;99749.88;;;22.20;73.74
12963;BME280;6546;49.882;8.666;2022-07-23T01:36:43;99742.91;;;22.00;76.10
12963;BME280;6546;49.882;8.666;2022-07-23T01:39:10;99744.19;;;21.91;76.11
12963;BME280;6546;49.882;8.666;2022-07-23T01:41:38;99746.94;;;21.88;77.22
12963;BME280;6546;49.882;8.666;2022-07-23T01:44:05;99760.25;;;21.85;78.65
12963;BME280;6546;49.882;8.666;2022-07-23T01:46:32;99770.63;;;21.70;78.29
12963;BME280;6546;49.882;8.666;2022-07-23T01:48:59;99764.50;;;21.69;78.15
12963;BME280;6546;49.882;8.666;2022-07-23T01:51:25;99767.44;;;21.63;79.43
12963;BME280;6546;49.882;8.666;2022-07-23T01:53:52;99769.78;;;21.69;78.92
12963;BME280;6546;49.882;8.666;2022-07-23T01:56:18;99754.59;;;21.55;79.68
12963;BME280;6546;49.882;8.666;2022-07-23T01:58:47;99753.88;;;21.52;80.43
12963;BME280;6546;49.882;8.666;2022-07-23T02:01:14;99759.28;;;21.49;80.10
12963;BME280;6546;49.882;8.666;2022-07-23T02:03:40;99755.88;;;21.47;80.43
12963;BME280;6546;49.882;8.666;2022-07-23T02:06:07;99756.53;;;21.52;80.30
12963;BME280;6546;49.882;8.666;2022-07-23T02:08:34;99784.28;;;21.59;80.63
12963;BME280;6546;49.882;8.666;2022-07-23T02:11:00;99784.41;;;21.56;80.21
12963;BME280;6546;49.882;8.666;2022-07-23T02:13:27;99799.16;;;21.60;80.47
12963;BME280;6546;49.882;8.666;2022-07-23T02:15:55;99792.13;;;21.60;79.50
12963;BME280;6546;49.882;8.666;2022-07-23T02:18:22;99789.28;;;21.65;81.13
12963;BME280;6546;49.882;8.666;2022-07-23T02:20:49;99790.19;;;21.64;79.69
12963;BME280;6546;49.882;8.666;2022-07-23T02:23:15;99789.34;;;21.63;79.41
12963;BME280;6546;49.882;8.666;2022-07-23T02:25:42;99794.41;;;21.68;80.35
12963;BME280;6546;49.882;8.666;2022-07-23T02:28:08;99791.25;;;21.60;79.86
12963;BME280;6546;49.882;8.666;2022-07-23T02:30:35;99798.78;;;21.49;80.33
12963;BME280;6546;49.882;8.666;2022-07-23T02:33:04;99788.97;;;21.52;80.68
12963;BME280;6546;49.882;8.666;2022-07-23T02:35:31;99774.19;;;21.50;80.45
12963;BME280;6546;49.882;8.666;2022-07-23T02:37:57;99765.13;;;21.36;80.12
12963;BME280;6546;49.882;8.666;2022-07-23T02:40:24;99765.13;;;21.36;79.84
12963;BME280;6546;49.882;8.666;2022-07-23T02:42:50;99762.84;;;21.27;80.02
12963;BME280;6546;49.882;8.666;2022-07-23T02:45:17;99785.63;;;21.28;80.28
12963;BME280;6546;49.882;8.666;2022-07-23T02:47:43;99787.56;;;21.23;80.26
12963;BME280;6546;49.882;8.666;2022-07-23T02:50:11;99795.34;;;21.26;80.83
12963;BME280;6546;49.882;8.666;2022-07-23T02:52:38;99773.13;;;21.33;81.49
12963;BME280;6546;49.882;8.666;2022-07-23T02:55:05;99750.38;;;21.32;81.39
12963;BME280;6546;49.882;8.666;2022-07-23T02:57:32;99769.22;;;21.22;82.19
12963;BME280;6546;49.882;8.666;2022-07-23T02:59:59;99769.28;;;21.00;83.56
12963;BME280;6546;49.882;8.666;2022-07-23T03:02:25;99770.25;;;20.97;84.03
12963;BME280;6546;49.882;8.666;2022-07-23T03:04:52;99771.28;;;20.95;85.05
12963;BME280;6546;49.882;8.666;2022-07-23T03:07:20;99773.22;;;20.89;85.14
12963;BME280;6546;49.882;8.666;2022-07-23T03:09:47;99792.16;;;20.98;84.78
12963;BME280;6546;49.882;8.666;2022-07-23T03:12:13;99782.81;;;21.11;85.30
12963;BME280;6546;49.882;8.666;2022-07-23T03:14:41;99779.66;;;21.23;84.21
12963;BME280;6546;49.882;8.666;2022-07-23T03:17:07;99784.03;;;21.24;82.61
12963;BME280;6546;49.882;8.666;2022-07-23T03:19:34;99780.19;;;21.31;82.67
12963;BME280;6546;49.882;8.666;2022-07-23T03:22:02;99773.22;;;21.30;82.27
12963;BME280;6546;49.882;8.666;2022-07-23T03:24:29;99780.47;;;21.25;83.17
12963;BME280;6546;49.882;8.666;2022-07-23T03:27:10;99791.44;;;21.14;85.24
12963;BME280;6546;49.882;8.666;2022-07-23T03:29:37;99806.63;;;20.87;85.41
12963;BME280;6546;49.882;8.666;2022-07-23T03:32:04;99805.41;;;20.74;85.33
12963;BME280;6546;49.882;8.666;2022-07-23T03:34:31;99815.00;;;20.75;86.09
12963;BME280;6546;49.882;8.666;2022-07-23T03:36:57;99813.59;;;20.88;86.65
12963;BME280;6546;49.882;8.666;2022-07-23T03:39:24;99797.50;;;21.16;84.02
12963;BME280;6546;49.882;8.666;2022-07-23T03:41:52;99811.41;;;21.20;83.05
12963;BME280;6546;49.882;8.666;2022-07-23T03:44:18;99829.00;;;21.18;82.69
12963;BME280;6546;49.882;8.666;2022-07-23T03:46:45;99841.03;;;21.24;82.79
12963;BME280;6546;49.882;8.666;2022-07-23T03:49:11;99831.72;;;21.16;83.38
12963;BME280;6546;49.882;8.666;2022-07-23T03:51:38;99835.44;;;21.11;83.68
12963;BME280;6546;49.882;8.666;2022-07-23T03:54:05;99837.28;;;21.09;83.87
12963;BME280;6546;49.882;8.666;2022-07-23T03:56:31;99839.13;;;21.07;84.44
12963;BME280;6546;49.882;8.666;2022-07-23T03:58:59;99846.22;;;21.05;84.06
12963;BME280;6546;49.882;8.666;2022-07-23T04:01:26;99847.81;;;21.09;83.88
12963;BME280;6546;49.882;8.666;2022-07-23T04:03:52;99842.13;;;20.98;84.55
12963;BME280;6546;49.882;8.666;2022-07-23T04:06:19;99826.50;;;20.95;84.29
12963;BME280;6546;49.882;8.666;2022-07-23T04:08:46;99820.50;;;20.91;85.29
12963;BME280;6546;49.882;8.666;2022-07-23T04:11:13;99815.28;;;20.89;85.82
12963;BME280;6546;49.882;8.666;2022-07-23T04:13:39;99822.13;;;20.73;86.51
12963;BME280;6546;49.882;8.666;2022-07-23T04:16:07;99834.63;;;20.88;85.63
12963;BME280;6546;49.882;8.666;2022-07-23T04:18:34;99846.72;;;20.92;84.95
12963;BME280;6546;49.882;8.666;2022-07-23T04:21:00;99847.66;;;20.91;86.04
12963;BME280;6546;49.882;8.666;2022-07-23T04:23:27;99847.34;;;20.77;85.14
12963;BME280;6546;49.882;8.666;2022-07-23T04:25:54;99856.16;;;20.76;85.94
12963;BME280;6546;49.882;8.666;2022-07-23T04:28:20;99866.81;;;20.73;85.16
12963;BME280;6546;49.882;8.666;2022-07-23T04:30:47;99860.94;;;20.66;85.18
12963;BME280;6546;49.882;8.666;2022-07-23T04:33:15;99871.63;;;20.84;85.07
12963;BME280;6546;49.882;8.666;2022-07-23T04:35:41;99874.75;;;20.72;84.81
12963;BME280;6546;49.882;8.666;2022-07-23T04:38:08;99869.75;;;20.65;84.73
12963;BME280;6546;49.882;8.666;2022-07-23T04:40:34;99872.41;;;20.64;84.78
12963;BME280;6546;49.882;8.666;2022-07-23T04:43:01;99876.88;;;20.62;85.17
12963;BME280;6546;49.882;8.666;2022-07-23T04:45:28;99883.66;;;20.67;84.99
12963;BME280;6546;49.882;8.666;2022-07-23T04:47:54;99891.53;;;20.69;84.87
12963;BME280;6546;49.882;8.666;2022-07-23T04:50:23;99900.19;;;20.71;85.10
12963;BME280;6546;49.882;8.666;2022-07-23T04:52:50;99910.69;;;20.71;84.81
12963;BME280;6546;49.882;8.666;2022-07-23T04:55:17;99922.56;;;20.81;84.63
12963;BME280;6546;49.882;8.666;2022-07-23T04:57:43;99919.03;;;20.82;82.89
12963;BME280;6546;49.882;8.666;2022-07-23T05:00:10;99918.13;;;20.83;83.11
12963;BME280;6546;49.882;8.666;2022-07-23T05:02:37;99922.44;;;20.84;83.15
12963;BME280;6546;49.882;8.666;2022-07-23T05:05:05;99918.00;;;20.86;82.37
12963;BME280;6546;49.882;8.666;2022-07-23T05:07:33;99913.25;;;20.73;83.38
12963;BME280;6546;49.882;8.666;2022-07-23T05:09:59;99914.94;;;20.75;83.40
12963;BME280;6546;49.882;8.666;2022-07-23T05:12:26;99917.00;;;20.67;83.39
12963;BME280;6546;49.882;8.666;2022-07-23T05:14:52;99918.41;;;20.76;82.73
12963;BME280;6546;49.882;8.666;2022-07-23T05:17:19;99923.28;;;20.63;83.62
12963;BME280;6546;49.882;8.666;2022-07-23T05:19:46;99912.22;;;20.55;83.96
12963;BME280;6546;49.882;8.666;2022-07-23T05:22:12;99916.53;;;20.56;84.10
12963;BME280;6546;49.882;8.666;2022-07-23T05:24:40;99920.09;;;20.55;84.22
12963;BME280;6546;49.882;8.666;2022-07-23T05:27:08;99923.28;;;20.63;83.95
12963;BME280;6546;49.882;8.666;2022-07-23T05:29:35;99914.09;;;20.51;84.14
12963;BME280;6546;49.882;8.666;2022-07-23T05:32:01;99913.16;;;20.76;82.91
12963;BME280;6546;49.882;8.666;2022-07-23T05:34:28;99908.25;;;20.88;82.26
12963;BME280;6546;49.882;8.666;2022-07-23T05:36:54;99914.38;;;20.67;82.96
12963;BME280;6546;49.882;8.666;2022-07-23T05:39:21;99909.56;;;20.55;83.82
12963;BME280;6546;49.882;8.666;2022-07-23T05:41:49;99913.13;;;20.54;83.81
12963;BME280;6546;49.882;8.666;2022-07-23T05:44:16;99923.00;;;20.71;81.76
12963;BME280;6546;49.882;8.666;2022-07-23T05:46:42;99921.81;;;20.56;83.31
12963;BME280;6546;49.882;8.666;2022-07-23T05:49:09;99940.19;;;20.56;83.48
12963;BME280;6546;49.882;8.666;2022-07-23T05:51:36;99939.06;;;20.63;83.02
12963;BME280;6546;49.882;8.666;2022-07-23T05:54:03;99947.22;;;20.79;82.85
12963;BME280;6546;49.882;8.666;2022-07-23T05:56:29;99946.88;;;20.88;82.90
12963;BME280;6546;49.882;8.666;2022-07-23T05:58:57;99948.81;;;20.83;82.10
12963;BME280;6546;49.882;8.666;2022-07-23T06:01:24;99950.97;;;20.73;81.79
12963;BME280;6546;49.882;8.666;2022-07-23T06:03:50;99959.56;;;20.77;82.05
12963;BME280;6546;49.882;8.666;2022-07-23T06:06:17;99965.75;;;20.98;81.70
12963;BME280;6546;49.882;8.666;2022-07-23T06:08:44;99968.59;;;21.15;80.16
12963;BME280;6546;49.882;8.666;2022-07-23T06:11:10;99965.16;;;21.13;80.93
12963;BME280;6546;49.882;8.666;2022-07-23T06:13:37;99970.06;;;21.00;80.63
12963;BME280;6546;49.882;8.666;2022-07-23T06:16:05;99956.47;;;21.11;80.29
12963;BME280;6546;49.882;8.666;2022-07-23T06:18:32;99947.25;;;21.01;79.92
12963;BME280;6546;49.882;8.666;2022-07-23T06:20:58;99943.94;;;20.96;80.36
12963;BME280;6546;49.882;8.666;2022-07-23T06:23:25;99945.66;;;20.97;80.07
12963;BME280;6546;49.882;8.666;2022-07-23T06:25:52;99944.88;;;20.95;80.45
12963;BME280;6546;49.882;8.666;2022-07-23T06:28:18;99930.78;;;20.96;79.92
12963;BME280;6546;49.882;8.666;2022-07-23T06:30:45;99924.59;;;20.97;79.81
12963;BME280;6546;49.882;8.666;2022-07-23T06:33:13;99921.03;;;20.98;80.32
12963;BME280;6546;49.882;8.666;2022-07-23T06:35:39;99925.53;;;20.96;79.91
12963;BME280;6546;49.882;8.666;2022-07-23T06:38:06;99921.59;;;21.06;79.49
12963;BME280;6546;49.882;8.666;2022-07-23T06:40:32;99925.81;;;21.10;79.92
12963;BME280;6546;49.882;8.666;2022-07-23T06:42:59;99928.50;;;21.30;78.91
12963;BME280;6546;49.882;8.666;2022-07-23T06:45:26;99929.53;;;21.26;78.31
12963;BME280;6546;49.882;8.666;2022-07-23T06:47:52;99931.31;;;21.48;77.26
12963;BME280;6546;49.882;8.666;2022-07-23T06:50:20;99936.88;;;21.62;76.99
12963;BME280;6546;49.882;8.666;2022-07-23T06:52:47;99940.56;;;21.58;76.34
12963;BME280;6546;49.882;8.666;2022-07-23T06:55:13;99948.25;;;21.62;76.01
12963;BME280;6546;49.882;8.666;2022-07-23T06:57:40;99967.50;;;21.85;76.09
12963;BME280;6546;49.882;8.666;2022-07-23T07:00:08;99966.44;;;21.89;76.11
12963;BME280;6546;49.882;8.666;2022-07-23T07:02:34;99973.25;;;22.15;75.52
12963;BME280;6546;49.882;8.666;2022-07-23T07:05:01;99963.44;;;22.19;74.51
12963;BME280;6546;49.882;8.666;2022-07-23T07:07:29;99961.59;;;22.21;74.44
12963;BME280;6546;49.882;8.666;2022-07-23T07:09:56;99971.22;;;22.22;74.22
12963;BME280;6546;49.882;8.666;2022-07-23T07:12:23;99964.00;;;22.05;73.15
12963;BME280;6546;49.882;8.666;2022-07-23T07:14:51;99969.41;;;22.02;72.43
12963;BME280;6546;49.882;8.666;2022-07-23T07:17:18;99970.84;;;21.88;73.91
12963;BME280;6546;49.882;8.666;2022-07-23T07:19:45;99975.41;;;21.85;73.60
12963;BME280;6546;49.882;8.666;2022-07-23T07:22:11;99981.13;;;21.95;72.60
12963;BME280;6546;49.882;8.666;2022-07-23T07:24:39;99979.94;;;21.81;73.45
12963;BME280;6546;49.882;8.666;2022-07-23T07:27:06;99991.28;;;22.04;73.79
12963;BME280;6546;49.882;8.666;2022-07-23T07:29:33;99989.50;;;22.25;72.18
12963;BME280;6546;49.882;8.666;2022-07-23T07:32:00;99993.66;;;22.30;71.38
12963;BME280;6546;49.882;8.666;2022-07-23T07:34:27;99999.69;;;22.53;70.79
12963;BME280;6546;49.882;8.666;2022-07-23T07:36:53;99996.28;;;22.70;71.04
12963;BME280;6546;49.882;8.666;2022-07-23T07:39:20;99992.16;;;22.64;69.35
12963;BME280;6546;49.882;8.666;2022-07-23T07:41:48;100004.81;;;22.56;70.14
12963;BME280;6546;49.882;8.666;2022-07-23T07:44:15;100006.28;;;22.63;70.35
12963;BME280;6546;49.882;8.666;2022-07-23T07:46:41;100011.66;;;22.60;69.17
12963;BME280;6546;49.882;8.666;2022-07-23T07:49:08;100021.09;;;22.45;70.51
12963;BME280;6546;49.882;8.666;2022-07-23T07:51:35;100024.34;;;22.71;70.33
12963;BME280;6546;49.882;8.666;2022-07-23T07:54:01;100023.66;;;22.67;69.25
12963;BME280;6546;49.882;8.666;2022-07-23T07:56:29;100011.53;;;22.63;69.35
12963;BME280;6546;49.882;8.666;2022-07-23T07:58:57;100016.91;;;22.80;69.63
12963;BME280;6546;49.882;8.666;2022-07-23T08:01:24;100021.97;;;23.04;68.53
12963;BME280;6546;49.882;8.666;2022-07-23T08:03:50;100018.00;;;23.14;68.10
12963;BME280;6546;49.882;8.666;2022-07-23T08:06:17;100027.00;;;23.10;68.10
12963;BME280;6546;49.882;8.666;2022-07-23T08:08:43;100029.09;;;23.21;68.10
12963;BME280;6546;49.882;8.666;2022-07-23T08:11:10;100029.31;;;23.16;67.35
12963;BME280;6546;49.882;8.666;2022-07-23T08:13:37;100032.97;;;22.95;67.76
12963;BME280;6546;49.882;8.666;2022-07-23T08:16:05;100035.38;;;22.80;67.97
12963;BME280;6546;49.882;8.666;2022-07-23T08:18:32;100040.34;;;22.86;68.01
12963;BME280;6546;49.882;8.666;2022-07-23T08:20:59;100036.06;;;22.65;68.60
12963;BME280;6546;49.882;8.666;2022-07-23T08:23:25;100047.84;;;22.77;69.99
12963;BME280;6546;49.882;8.666;2022-07-23T08:25:52;100039.19;;;22.73;69.10
12963;BME280;6546;49.882;8.666;2022-07-23T08:28:19;100037.19;;;22.78;69.49
12963;BME280;6546;49.882;8.666;2022-07-23T08:30:46;100044.47;;;22.94;67.64
12963;BME280;6546;49.882;8.666;2022-07-23T08:33:16;100050.53;;;23.14;67.94
12963;BME280;6546;49.882;8.666;2022-07-23T08:35:45;100044.09;;;23.20;67.06
12963;BME280;6546;49.882;8.666;2022-07-23T08:38:13;100052.06;;;23.37;66.85
12963;BME280;6546;49.882;8.666;2022-07-23T08:40:42;100051.25;;;23.54;66.23
12963;BME280;6546;49.882;8.666;2022-07-23T08:43:11;100051.88;;;23.78;64.89
12963;BME280;6546;49.882;8.666;2022-07-23T08:45:39;100045.38;;;24.03;65.50
12963;BME280;6546;49.882;8.666;2022-07-23T08:48:08;100043.00;;;24.14;62.72
12963;BME280;6546;49.882;8.666;2022-07-23T08:50:37;100047.44;;;24.13;61.66
12963;BME280;6546;49.882;8.666;2022-07-23T08:53:07;100031.34;;;24.01;62.40
12963;BME280;6546;49.882;8.666;2022-07-23T08:55:33;100038.50;;;24.33;62.41
12963;BME280;6546;49.882;8.666;2022-07-23T08:58:01;100026.66;;;24.58;61.21
12963;BME280;6546;49.882;8.666;2022-07-23T09:00:28;100035.53;;;24.57;60.67
12963;BME280;6546;49.882;8.666;2022-07-23T09:02:54;100030.66;;;24.82;60.63
12963;BME280;6546;49.882;8.666;2022-07-23T09:05:21;100029.53;;;24.86;59.84
12963;BME280;6546;49.882;8.666;2022-07-23T09:08:10;100036.97;;;24.96;59.07
12963;BME280;6546;49.882;8.666;2022-07-23T09:10:48;100038.13;;;24.90;58.22
12963;BME280;6546;49.882;8.666;2022-07-23T09:13:32;100034.09;;;24.67;59.73
12963;BME280;6546;49.882;8.666;2022-07-23T09:16:03;100033.16;;;24.68;59.45
12963;BME280;6546;49.882;8.666;2022-07-23T09:18:34;100030.31;;;24.55;58.98
12963;BME280;6546;49.882;8.666;2022-07-23T09:21:11;100030.69;;;24.65;59.73
12963;BME280;6546;49.882;8.666;2022-07-23T09:23:41;100028.09;;;24.97;59.13
12963;BME280;6546;49.882;8.666;2022-07-23T09:26:17;100031.16;;;25.05;57.56
12963;BME280;6546;49.882;8.666;2022-07-23T09:28:51;100037.41;;;25.04;57.37
12963;BME280;6546;49.882;8.666;2022-07-23T09:31:18;100041.28;;;25.14;57.62
12963;BME280;6546;49.882;8.666;2022-07-23T09:33:44;100033.25;;;25.31;56.25
12963;BME280;6546;49.882;8.666;2022-07-23T09:36:11;100041.19;;;25.31;56.79
12963;BME280;6546;49.882;8.666;2022-07-23T09:38:49;100035.31;;;25.26;56.52
12963;BME280;6546;49.882;8.666;2022-07-23T09:41:16;100042.13;;;25.30;56.78
12963;BME280;6546;49.882;8.666;2022-07-23T09:43:43;100037.69;;;25.47;56.11
12963;BME280;6546;49.882;8.666;2022-07-23T09:46:20;100035.50;;;25.69;56.14
12963;BME280;6546;49.882;8.666;2022-07-23T09:48:49;100041.06;;;25.80;56.43
12963;BME280;6546;49.882;8.666;2022-07-23T09:51:17;100024.34;;;25.94;55.91
12963;BME280;6546;49.882;8.666;2022-07-23T09:53:45;100033.97;;;26.11;55.92
12963;BME280;6546;49.882;8.666;2022-07-23T09:56:14;100031.63;;;25.91;53.49
12963;BME280;6546;49.882;8.666;2022-07-23T09:58:41;100034.91;;;26.10;53.67
12963;BME280;6546;49.882;8.666;2022-07-23T10:01:13;100031.13;;;26.14;53.01
12963;BME280;6546;49.882;8.666;2022-07-23T10:03:40;100032.13;;;25.97;52.69
12963;BME280;6546;49.882;8.666;2022-07-23T10:06:08;100034.38;;;25.73;53.31
12963;BME280;6546;49.882;8.666;2022-07-23T10:08:35;100043.47;;;25.85;54.05
12963;BME280;6546;49.882;8.666;2022-07-23T10:11:03;100036.94;;;25.91;52.38
12963;BME280;6546;49.882;8.666;2022-07-23T10:13:31;100035.59;;;25.83;53.91
12963;BME280;6546;49.882;8.666;2022-07-23T10:16:20;100025.88;;;25.98;53.10
12963;BME280;6546;49.882;8.666;2022-07-23T10:18:47;100032.09;;;26.13;53.81
12963;BME280;6546;49.882;8.666;2022-07-23T10:21:21;100030.41;;;26.41;54.19
12963;BME280;6546;49.882;8.666;2022-07-23T10:23:58;100025.13;;;26.69;53.07
12963;BME280;6546;49.882;8.666;2022-07-23T10:26:34;100032.13;;;26.99;51.39
12963;BME280;6546;49.882;8.666;2022-07-23T10:29:12;100028.31;;;27.17;50.48
12963;BME280;6546;49.882;8.666;2022-07-23T10:31:52;100021.56;;;27.26;50.59
12963;BME280;6546;49.882;8.666;2022-07-23T10:34:27;100025.13;;;26.98;49.80
12963;BME280;6546;49.882;8.666;2022-07-23T10:37:01;100024.19;;;26.84;50.01
12963;BME280;6546;49.882;8.666;2022-07-23T10:39:33;100032.72;;;26.61;50.12
12963;BME280;6546;49.882;8.666;2022-07-23T10:42:10;100023.91;;;26.75;50.33
12963;BME280;6546;49.882;8.666;2022-07-23T10:44:42;100023.03;;;26.74;49.59
12963;BME280;6546;49.882;8.666;2022-07-23T10:47:10;100026.66;;;26.45;51.17
12963;BME280;6546;49.882;8.666;2022-07-23T10:49:49;100024.72;;;26.32;51.32
12963;BME280;6546;49.882;8.666;2022-07-23T10:52:18;100022.38;;;26.42;51.94
12963;BME280;6546;49.882;8.666;2022-07-23T10:54:46;100015.84;;;26.48;50.33
12963;BME280;6546;49.882;8.666;2022-07-23T10:57:15;100023.16;;;26.44;51.30
12963;BME280;6546;49.882;8.666;2022-07-23T11:02:48;100018.31;;;26.51;50.45
12963;BME280;6546;49.882;8.666;2022-07-23T11:05:16;100019.06;;;26.53;50.82
12963;BME280;6546;49.882;8.666;2022-07-23T11:08:14;100012.25;;;26.49;50.14
12963;BME280;6546;49.882;8.666;2022-07-23T11:10:44;100022.09;;;26.75;51.38
12963;BME280;6546;49.882;8.666;2022-07-23T11:13:39;100012.75;;;26.97;49.71
12963;BME280;6546;49.882;8.666;2022-07-23T11:16:25;100005.16;;;27.05;50.86
12963;BME280;6546;49.882;8.666;2022-07-23T11:19:05;100005.66;;;27.11;50.92
12963;BME280;6546;49.882;8.666;2022-07-23T11:21:51;100006.53;;;27.12;49.07
12963;BME280;6546;49.882;8.666;2022-07-23T11:24:19;100011.84;;;27.12;49.43
12963;BME280;6546;49.882;8.666;2022-07-23T11:27:03;100009.06;;;27.14;49.32
12963;BME280;6546;49.882;8.666;2022-07-23T11:29:43;100015.25;;;27.14;48.65
12963;BME280;6546;49.882;8.666;2022-07-23T11:32:28;100017.88;;;27.00;49.25
12963;BME280;6546;49.882;8.666;2022-07-23T11:34:57;100009.31;;;27.09;50.77
12963;BME280;6546;49.882;8.666;2022-07-23T11:37:35;100017.31;;;27.23;49.15
12963;BME280;6546;49.882;8.666;2022-07-23T11:40:07;100009.84;;;27.43;48.59
12963;BME280;6546;49.882;8.666;2022-07-23T11:42:36;100002.81;;;27.42;48.31
12963;BME280;6546;49.882;8.666;2022-07-23T11:45:04;100007.97;;;27.30;48.76
12963;BME280;6546;49.882;8.666;2022-07-23T11:47:31;100008.03;;;27.16;48.90
12963;BME280;6546;49.882;8.666;2022-07-23T11:50:00;100003.13;;;26.81;49.12
12963;BME280;6546;49.882;8.666;2022-07-23T11:52:28;99995.16;;;26.67;50.08
12963;BME280;6546;49.882;8.666;2022-07-23T11:54:58;100000.13;;;26.59;50.77
12963;BME280;6546;49.882;8.666;2022-07-23T11:57:28;99989.78;;;26.54;50.59
12963;BME280;6546;49.882;8.666;2022-07-23T11:59:58;99993.75;;;26.61;50.92
12963;BME280;6546;49.882;8.666;2022-07-23T12:02:27;99987.03;;;26.56;50.98
12963;BME280;6546;49.882;8.666;2022-07-23T12:04:53;99987.03;;;26.70;50.16
12963;BME280;6546;49.882;8.666;2022-07-23T12:07:32;99986.00;;;26.73;49.91
12963;BME280;6546;49.882;8.666;2022-07-23T12:10:01;99986.00;;;26.73;48.88
12963;BME280;6546;49.882;8.666;2022-07-23T12:12:35;99982.38;;;26.74;48.74
12963;BME280;6546;49.882;8.666;2022-07-23T12:15:02;99978.09;;;26.71;48.92
12963;BME280;6546;49.882;8.666;2022-07-23T12:17:30;99972.97;;;26.82;48.94
12963;BME280;6546;49.882;8.666;2022-07-23T12:19:58;99974.75;;;27.10;47.93
12963;BME280;6546;49.882;8.666;2022-07-23T12:22:33;99971.44;;;27.34;47.43
12963;BME280;6546;49.882;8.666;2022-07-23T12:25:03;99960.78;;;27.61;46.45
12963;BME280;6546;49.882;8.666;2022-07-23T12:27:31;99961.50;;;27.77;45.98
12963;BME280;6546;49.882;8.666;2022-07-23T12:29:57;99955.88;;;27.95;45.61
12963;BME280;6546;49.882;8.666;2022-07-23T12:32:26;99962.78;;;28.10;44.89
12963;BME280;6546;49.882;8.666;2022-07-23T12:35:04;99970.66;;;27.99;44.97
12963;BME280;6546;49.882;8.666;2022-07-23T12:37:32;99963.84;;;27.95;46.17
12963;BME280;6546;49.882;8.666;2022-07-23T12:40:28;99964.06;;;27.92;45.41
12963;BME280;6546;49.882;8.666;2022-07-23T12:42:57;99961.91;;;27.97;45.64
12963;BME280;6546;49.882;8.666;2022-07-23T12:45:25;99968.00;;;27.86;46.05
12963;BME280;6546;49.882;8.666;2022-07-23T12:47:58;99971.25;;;27.77;44.79
12963;BME280;6546;49.882;8.666;2022-07-23T12:50:56;99976.75;;;27.61;45.96
12963;BME280;6546;49.882;8.666;2022-07-23T12:53:24;99981.81;;;27.64;45.28
12963;BME280;6546;49.882;8.666;2022-07-23T12:55:58;99978.19;;;27.52;45.27
12963;BME280;6546;49.882;8.666;2022-07-23T12:58:25;99980.59;;;27.43;45.85
12963;BME280;6546;49.882;8.666;2022-07-23T13:01:03;99981.09;;;27.22;46.37
12963;BME280;6546;49.882;8.666;2022-07-23T13:03:33;99980.63;;;27.16;46.77
12963;BME280;6546;49.882;8.666;2022-07-23T13:06:01;99987.53;;;27.18;46.02
12963;BME280;6546;49.882;8.666;2022-07-23T13:08:30;99983.91;;;27.05;45.89
12963;BME280;6546;49.882;8.666;2022-07-23T13:11:00;99988.09;;;27.09;45.85
12963;BME280;6546;49.882;8.666;2022-07-23T13:13:29;99983.16;;;27.17;45.46
12963;BME280;6546;49.882;8.666;2022-07-23T13:15:56;99978.63;;;27.19;44.70
12963;BME280;6546;49.882;8.666;2022-07-23T13:18:24;99983.63;;;27.24;44.94